Time;durP1;ratioP1;P1;durP2;ratioP2;P2;SDS_P1;SDS_P2;PMS_P1;PMS_P2;Temp;Humidity;BMP_temperature;BMP_pressure;BME280_temperature;BME280_humidity;BME280_pressure;Samples;Min_cycle;Max_cycle;Signal;HPM_P1;HPM_P2
2023/07/31 00:00:16;;;;;;;1.02;0.90;;;22.50;98.20;;;;;;5105048;27;45240;-67
2023/07/31 00:02:42;;;;;;;2.65;1.13;;;22.50;98.20;;;;;;5102435;27;47372;-67
2023/07/31 00:05:09;;;;;;;1.98;0.90;;;22.50;98.20;;;;;;5105877;27;45318;-68
2023/07/31 00:07:36;;;;;;;1.35;1.00;;;22.50;98.20;;;;;;5105098;27;45083;-68
2023/07/31 00:10:04;;;;;;;1.30;1.02;;;22.50;98.20;;;;;;5105518;27;45164;-68
2023/07/31 00:12:32;;;;;;;1.20;0.80;;;22.50;98.10;;;;;;5105280;27;45435;-68
2023/07/31 00:14:59;;;;;;;1.88;1.05;;;22.50;98.10;;;;;;5105786;27;45217;-68
2023/07/31 00:17:26;;;;;;;1.13;0.85;;;22.50;98.10;;;;;;5113492;27;45267;-67
2023/07/31 00:19:52;;;;;;;2.33;1.40;;;22.50;98.10;;;;;;5105661;27;45250;-67
2023/07/31 00:22:19;;;;;;;1.75;1.13;;;22.50;98.10;;;;;;5102952;27;48112;-68
2023/07/31 00:24:46;;;;;;;3.65;1.33;;;22.50;98.10;;;;;;5104784;27;45183;-68
2023/07/31 00:27:13;;;;;;;1.40;1.15;;;22.50;98.10;;;;;;5104091;27;45284;-67
2023/07/31 00:29:41;;;;;;;1.75;1.20;;;22.60;98.10;;;;;;5103648;27;45355;-68
2023/07/31 00:32:08;;;;;;;1.90;1.20;;;22.50;98.00;;;;;;5104168;27;45143;-68
2023/07/31 00:34:35;;;;;;;1.63;1.10;;;22.60;98.00;;;;;;5105134;27;45153;-68
2023/07/31 00:37:02;;;;;;;1.98;1.10;;;22.60;98.00;;;;;;5105106;27;45395;-68
2023/07/31 00:39:30;;;;;;;2.60;1.02;;;22.50;98.00;;;;;;5105257;27;45261;-68
2023/07/31 00:41:57;;;;;;;1.42;0.90;;;22.50;98.00;;;;;;5103338;27;47903;-68
2023/07/31 00:44:24;;;;;;;1.92;1.30;;;22.60;98.00;;;;;;5104510;27;45106;-68
2023/07/31 00:46:53;;;;;;;1.23;1.00;;;22.60;98.00;;;;;;5104001;27;45163;-67
2023/07/31 00:49:20;;;;;;;2.55;1.42;;;22.60;98.00;;;;;;5100769;27;45257;-68
2023/07/31 00:51:46;;;;;;;1.60;1.08;;;22.50;98.00;;;;;;5104303;27;46051;-67
2023/07/31 00:54:13;;;;;;;3.85;1.45;;;22.50;98.00;;;;;;5104555;27;45150;-67
2023/07/31 00:56:42;;;;;;;2.92;1.27;;;22.50;98.00;;;;;;5109006;27;45168;-67
2023/07/31 00:59:09;;;;;;;1.75;1.38;;;22.50;98.00;;;;;;5103328;27;45297;-68
2023/07/31 01:01:36;;;;;;;2.40;1.23;;;22.50;98.00;;;;;;5102752;27;45160;-67
2023/07/31 01:04:04;;;;;;;1.88;1.33;;;22.50;98.00;;;;;;5104124;27;45095;-68
2023/07/31 01:06:37;;;;;;;1.48;1.10;;;22.50;97.90;;;;;;5104285;27;45212;-68
2023/07/31 01:09:08;;;;;;;3.17;1.35;;;22.50;97.90;;;;;;5104699;27;45277;-68
2023/07/31 01:11:39;;;;;;;1.65;1.05;;;22.50;97.90;;;;;;5103453;27;47937;-67
2023/07/31 01:14:06;;;;;;;1.60;1.00;;;22.50;97.90;;;;;;5104377;27;45306;-67
2023/07/31 01:16:33;;;;;;;2.38;1.30;;;22.50;97.90;;;;;;5108932;27;45417;-68
2023/07/31 01:19:00;;;;;;;3.55;1.10;;;22.50;97.90;;;;;;5104525;27;45264;-68
2023/07/31 01:21:48;;;;;;;2.55;1.23;;;22.50;97.90;;;;;;5099678;27;48035;-68
2023/07/31 01:24:23;;;;;;;2.17;1.20;;;22.50;97.80;;;;;;5103708;27;45191;-68
2023/07/31 01:26:57;;;;;;;2.50;1.35;;;22.50;97.80;;;;;;5101766;27;45224;-67
2023/07/31 01:29:31;;;;;;;2.08;1.15;;;22.50;97.70;;;;;;5102594;27;45107;-67
2023/07/31 01:32:02;;;;;;;2.22;1.35;;;22.50;97.80;;;;;;5102750;27;46421;-67
2023/07/31 01:34:30;;;;;;;2.25;1.38;;;22.50;97.70;;;;;;5103779;27;45157;-67
2023/07/31 01:36:57;;;;;;;1.27;0.80;;;22.50;97.70;;;;;;5103175;27;45178;-67
2023/07/31 01:39:24;;;;;;;2.03;1.10;;;22.50;97.70;;;;;;5104011;27;45095;-68
2023/07/31 01:41:52;;;;;;;3.50;1.50;;;22.50;97.60;;;;;;5107373;27;46324;-68
2023/07/31 01:44:19;;;;;;;4.00;1.40;;;22.50;97.60;;;;;;5103593;27;45151;-68
2023/07/31 01:46:46;;;;;;;3.97;1.38;;;22.50;97.60;;;;;;5103852;27;45204;-67
2023/07/31 01:49:13;;;;;;;3.70;1.58;;;22.50;97.60;;;;;;5104165;27;45416;-67
2023/07/31 01:51:40;;;;;;;2.25;1.10;;;22.50;97.50;;;;;;5102601;27;45229;-68
2023/07/31 01:54:06;;;;;;;2.80;1.35;;;22.50;97.50;;;;;;5102542;27;45242;-67
2023/07/31 01:56:33;;;;;;;2.00;1.45;;;22.50;97.50;;;;;;5102112;27;45216;-68
2023/07/31 01:59:02;;;;;;;2.10;1.38;;;22.50;97.50;;;;;;5102961;27;45201;-68
2023/07/31 02:01:28;;;;;;;2.67;1.20;;;22.50;97.50;;;;;;5106389;27;45472;-67
2023/07/31 02:03:55;;;;;;;1.98;1.13;;;22.50;97.50;;;;;;5103418;27;45177;-68
2023/07/31 02:06:22;;;;;;;2.70;1.40;;;22.50;97.40;;;;;;5110799;27;45275;-67
2023/07/31 02:08:49;;;;;;;2.03;1.20;;;22.50;97.50;;;;;;5103634;27;45416;-68
2023/07/31 02:11:16;;;;;;;3.78;1.80;;;22.50;97.50;;;;;;5102391;27;48110;-68
2023/07/31 02:13:42;;;;;;;1.80;1.20;;;22.50;97.50;;;;;;5103014;27;45087;-67
2023/07/31 02:16:11;;;;;;;4.75;1.40;;;22.50;97.50;;;;;;5103291;27;45157;-68
2023/07/31 02:18:37;;;;;;;2.15;1.10;;;22.50;97.50;;;;;;5105193;27;45194;-68
2023/07/31 02:21:04;;;;;;;2.08;1.30;;;22.50;97.50;;;;;;5101022;27;46312;-68
2023/07/31 02:23:31;;;;;;;3.17;1.33;;;22.50;97.50;;;;;;5101200;27;45345;-67
2023/07/31 02:25:58;;;;;;;3.80;1.60;;;22.50;97.50;;;;;;5102160;27;45218;-67
2023/07/31 02:28:25;;;;;;;2.40;1.33;;;22.50;97.50;;;;;;5101409;27;45487;-68
2023/07/31 02:30:52;;;;;;;1.90;1.30;;;22.50;97.50;;;;;;5098991;27;47060;-67
2023/07/31 02:33:20;;;;;;;2.35;1.13;;;22.50;97.50;;;;;;5102575;27;45114;-68
2023/07/31 02:35:47;;;;;;;2.42;1.17;;;22.50;97.50;;;;;;5102670;27;45315;-67
2023/07/31 02:38:14;;;;;;;1.90;1.40;;;22.50;97.50;;;;;;5102156;27;45172;-67
2023/07/31 02:40:41;;;;;;;2.70;1.50;;;22.50;97.50;;;;;;5102154;27;46205;-68
2023/07/31 02:43:07;;;;;;;2.88;1.10;;;22.50;97.50;;;;;;5102823;27;45172;-68
2023/07/31 02:45:34;;;;;;;1.60;1.20;;;22.50;97.60;;;;;;5102796;27;45178;-68
2023/07/31 02:48:01;;;;;;;4.03;1.45;;;22.50;97.60;;;;;;5103382;27;45180;-67
2023/07/31 02:50:29;;;;;;;1.23;1.00;;;22.50;97.60;;;;;;5106865;27;48481;-68
2023/07/31 02:52:56;;;;;;;1.80;1.23;;;22.50;97.60;;;;;;5102471;27;45205;-67
2023/07/31 02:55:23;;;;;;;2.05;1.45;;;22.50;97.60;;;;;;5104825;27;45374;-67
2023/07/31 02:57:50;;;;;;;1.73;1.10;;;22.50;97.60;;;;;;5102068;27;45293;-67
2023/07/31 03:00:17;;;;;;;3.10;1.33;;;22.50;97.60;;;;;;5102340;27;47546;-68
2023/07/31 03:02:43;;;;;;;1.60;1.10;;;22.50;98.00;;;;;;5102676;27;45359;-67
2023/07/31 03:05:10;;;;;;;1.38;1.00;;;22.50;97.60;;;;;;5101766;27;45228;-67
2023/07/31 03:07:38;;;;;;;2.45;1.27;;;22.50;97.60;;;;;;5101969;27;45292;-68
2023/07/31 03:10:06;;;;;;;1.25;1.08;;;22.50;97.60;;;;;;5102590;27;47930;-67
2023/07/31 03:12:33;;;;;;;2.45;1.25;;;22.50;97.60;;;;;;5102266;27;45296;-68
2023/07/31 03:14:59;;;;;;;1.63;0.93;;;22.60;97.60;;;;;;5102716;27;45170;-67
2023/07/31 03:17:26;;;;;;;1.55;1.23;;;22.50;97.60;;;;;;5102436;27;45220;-67
2023/07/31 03:19:53;;;;;;;2.17;1.10;;;22.60;97.60;;;;;;5100863;27;47292;-68
2023/07/31 03:22:20;;;;;;;2.35;1.17;;;22.60;97.60;;;;;;5101730;27;45338;-68
2023/07/31 03:24:48;;;;;;;2.55;1.13;;;22.50;97.60;;;;;;5094145;27;45236;-68
2023/07/31 03:27:14;;;;;;;1.75;1.15;;;22.50;97.60;;;;;;5106350;27;45126;-67
2023/07/31 03:29:41;;;;;;;2.70;1.25;;;22.50;97.60;;;;;;5101121;27;46378;-68
2023/07/31 03:32:08;;;;;;;1.48;0.93;;;22.50;97.60;;;;;;5101635;27;45175;-68
2023/07/31 03:34:35;;;;;;;1.55;1.23;;;22.50;97.60;;;;;;5110939;27;45289;-67
2023/07/31 03:37:02;;;;;;;3.50;1.50;;;22.50;97.60;;;;;;5101947;27;45272;-68
2023/07/31 03:39:29;;;;;;;2.42;1.50;;;22.50;97.60;;;;;;5101930;27;46233;-67
2023/07/31 03:41:57;;;;;;;2.08;1.17;;;22.50;97.60;;;;;;5103403;27;45243;-68
2023/07/31 03:44:23;;;;;;;2.03;1.20;;;22.50;97.70;;;;;;5101884;27;45130;-67
2023/07/31 03:46:50;;;;;;;1.33;1.20;;;22.50;97.70;;;;;;5105491;27;45238;-67
2023/07/31 03:49:17;;;;;;;1.80;1.05;;;22.50;97.70;;;;;;5105334;27;46303;-67
2023/07/31 03:51:44;;;;;;;2.17;1.20;;;22.50;97.70;;;;;;5107806;27;45197;-67
2023/07/31 03:54:11;;;;;;;3.45;1.25;;;22.50;97.70;;;;;;5105109;27;45304;-67
2023/07/31 03:56:38;;;;;;;3.90;1.35;;;22.50;97.70;;;;;;5103976;27;45270;-67
2023/07/31 03:59:06;;;;;;;3.15;1.30;;;22.50;98.00;;;;;;5103983;27;47472;-68
2023/07/31 04:01:33;;;;;;;2.47;1.30;;;22.50;97.70;;;;;;5103643;27;45156;-67
2023/07/31 04:04:00;;;;;;;1.80;1.15;;;22.50;97.70;;;;;;5104760;27;45310;-68
2023/07/31 04:06:27;;;;;;;4.07;1.40;;;22.50;97.70;;;;;;5096621;27;45309;-68
2023/07/31 04:08:54;;;;;;;1.10;0.95;;;22.60;97.70;;;;;;5106099;27;47021;-68
2023/07/31 04:11:21;;;;;;;2.28;1.20;;;22.60;97.70;;;;;;5104002;27;45211;-67
2023/07/31 04:13:47;;;;;;;1.90;1.20;;;22.60;97.70;;;;;;5101835;27;45121;-67
2023/07/31 04:16:15;;;;;;;1.75;1.25;;;22.60;97.70;;;;;;5105507;27;45250;-67
2023/07/31 04:18:42;;;;;;;2.28;1.00;;;22.60;97.70;;;;;;5110672;27;46042;-67
2023/07/31 04:21:09;;;;;;;2.38;1.38;;;22.60;97.80;;;;;;5102396;27;45353;-68
2023/07/31 04:23:36;;;;;;;2.65;1.40;;;22.50;97.70;;;;;;5104892;27;45250;-68
2023/07/31 04:26:03;;;;;;;2.00;1.48;;;22.50;97.70;;;;;;5105397;27;45142;-68
2023/07/31 04:28:31;;;;;;;4.50;1.40;;;22.60;97.70;;;;;;5115970;27;47209;-68
2023/07/31 04:30:58;;;;;;;2.65;1.52;;;22.60;97.80;;;;;;5109135;27;45179;-68
2023/07/31 04:33:26;;;;;;;1.77;1.23;;;22.60;97.80;;;;;;5108275;27;45197;-68
2023/07/31 04:35:54;;;;;;;1.95;1.50;;;22.60;97.70;;;;;;5104298;27;45279;-68
2023/07/31 04:38:21;;;;;;;2.08;1.38;;;22.60;97.80;;;;;;5107771;27;47106;-67
2023/07/31 04:40:48;;;;;;;3.22;1.40;;;22.60;97.80;;;;;;5094621;27;45236;-68
2023/07/31 04:43:15;;;;;;;3.33;1.50;;;22.60;97.80;;;;;;5103114;27;45324;-67
2023/07/31 04:45:43;;;;;;;1.98;1.35;;;22.60;97.80;;;;;;5104113;27;45276;-66
2023/07/31 04:48:10;;;;;;;1.33;1.17;;;22.60;97.90;;;;;;5104442;27;46204;-66
2023/07/31 04:50:38;;;;;;;2.22;1.33;;;22.50;97.90;;;;;;5102109;27;45260;-67
2023/07/31 04:53:05;;;;;;;6.03;1.30;;;22.50;97.90;;;;;;5096442;27;45269;-67
2023/07/31 04:55:32;;;;;;;2.92;1.48;;;22.60;97.90;;;;;;5097169;27;45115;-66
2023/07/31 04:58:00;;;;;;;2.42;1.25;;;22.60;98.00;;;;;;5103041;27;47298;-67
2023/07/31 05:00:26;;;;;;;2.85;1.30;;;22.50;98.00;;;;;;5106005;27;45208;-67
2023/07/31 05:02:53;;;;;;;2.35;1.15;;;22.50;97.90;;;;;;5104101;27;45137;-67
2023/07/31 05:05:20;;;;;;;2.35;1.30;;;22.50;98.00;;;;;;5103396;27;45183;-67
2023/07/31 05:07:48;;;;;;;3.75;1.58;;;22.50;97.90;;;;;;5103912;27;46371;-67
2023/07/31 05:10:15;;;;;;;2.28;1.40;;;22.50;97.90;;;;;;5103367;27;45075;-67
2023/07/31 05:12:42;;;;;;;2.75;1.60;;;22.60;98.00;;;;;;5100967;27;45272;-67
2023/07/31 05:15:09;;;;;;;2.35;1.35;;;22.50;97.90;;;;;;5102061;27;45205;-67
2023/07/31 05:17:36;;;;;;;2.58;1.38;;;22.60;98.00;;;;;;5102660;27;46021;-67
2023/07/31 05:20:03;;;;;;;1.80;1.30;;;22.60;98.00;;;;;;5103928;27;45337;-67
2023/07/31 05:22:30;;;;;;;1.83;1.50;;;22.60;97.90;;;;;;5108964;27;45124;-67
2023/07/31 05:24:58;;;;;;;2.38;1.17;;;22.60;97.90;;;;;;5111900;27;45291;-67
2023/07/31 05:27:25;;;;;;;1.70;1.20;;;22.60;97.90;;;;;;5106925;27;46145;-68
2023/07/31 05:29:52;;;;;;;2.20;1.40;;;22.60;97.90;;;;;;5102704;27;45179;-67
2023/07/31 05:32:18;;;;;;;1.35;1.25;;;22.60;97.90;;;;;;5103482;27;46052;-67
2023/07/31 05:34:45;;;;;;;2.60;1.48;;;22.60;97.90;;;;;;5105075;27;45271;-67
2023/07/31 05:37:12;;;;;;;1.92;1.40;;;22.60;97.90;;;;;;5096297;27;46463;-67
2023/07/31 05:39:39;;;;;;;1.67;1.35;;;22.60;97.80;;;;;;5103031;27;45335;-67
2023/07/31 05:42:07;;;;;;;2.45;1.10;;;22.60;97.80;;;;;;5099273;27;45208;-67
2023/07/31 05:44:34;;;;;;;2.35;1.25;;;22.60;97.80;;;;;;5108746;27;45084;-67
2023/07/31 05:47:01;;;;;;;2.72;1.45;;;22.60;97.80;;;;;;5103737;27;47011;-67
2023/07/31 05:49:28;;;;;;;2.53;1.40;;;22.60;97.80;;;;;;5106983;27;45262;-66
2023/07/31 05:51:55;;;;;;;2.42;1.40;;;22.60;97.80;;;;;;5105279;27;45162;-67
2023/07/31 05:54:22;;;;;;;2.13;1.30;;;22.60;97.80;;;;;;5104277;27;45095;-66
2023/07/31 05:56:48;;;;;;;1.92;1.27;;;22.60;97.80;;;;;;5095054;27;47309;-67
2023/07/31 05:59:17;;;;;;;1.63;1.15;;;22.60;97.80;;;;;;5088561;27;45257;-67
2023/07/31 06:01:44;;;;;;;1.77;1.25;;;22.60;97.80;;;;;;5091417;27;45330;-67
2023/07/31 06:04:11;;;;;;;2.90;1.50;;;22.60;97.80;;;;;;5094385;27;45667;-67
2023/07/31 06:06:37;;;;;;;2.75;1.40;;;22.60;97.80;;;;;;5091618;27;48256;-66
2023/07/31 06:09:04;;;;;;;1.92;1.27;;;22.50;97.80;;;;;;5091387;27;45204;-67
2023/07/31 06:11:31;;;;;;;2.05;1.40;;;22.50;97.80;;;;;;5097572;27;45402;-67
2023/07/31 06:13:58;;;;;;;2.53;1.17;;;22.50;97.80;;;;;;5096422;27;45412;-67
2023/07/31 06:16:27;;;;;;;1.75;1.10;;;22.50;97.80;;;;;;5095740;27;46255;-67
2023/07/31 06:18:53;;;;;;;3.67;1.70;;;22.50;97.80;;;;;;5099028;27;45630;-67
2023/07/31 06:21:20;;;;;;;2.22;1.27;;;22.50;97.90;;;;;;5100882;27;45138;-67
2023/07/31 06:23:47;;;;;;;2.22;1.40;;;22.50;97.90;;;;;;5094943;27;45442;-67
2023/07/31 06:26:14;;;;;;;1.80;1.10;;;22.50;97.90;;;;;;5094025;27;48007;-67
2023/07/31 06:28:41;;;;;;;2.13;1.20;;;22.60;97.90;;;;;;5098946;27;45094;-67
2023/07/31 06:31:07;;;;;;;2.75;1.80;;;22.50;97.90;;;;;;5102598;27;45426;-67
2023/07/31 06:33:36;;;;;;;1.67;1.17;;;22.60;97.90;;;;;;5098189;27;45245;-67
2023/07/31 06:36:02;;;;;;;1.88;1.20;;;22.50;97.90;;;;;;5096383;27;46032;-67
2023/07/31 06:38:29;;;;;;;2.08;1.40;;;22.60;97.90;;;;;;5101864;27;45208;-67
2023/07/31 06:40:56;;;;;;;2.55;1.33;;;22.50;97.90;;;;;;5096499;27;45248;-67
2023/07/31 06:43:23;;;;;;;2.90;1.27;;;22.50;97.90;;;;;;5098762;27;45110;-67
2023/07/31 06:45:51;;;;;;;2.13;1.33;;;22.60;98.00;;;;;;5108426;27;46063;-67
2023/07/31 06:48:17;;;;;;;1.55;1.20;;;22.60;98.00;;;;;;5102951;27;45351;-67
2023/07/31 06:50:46;;;;;;;2.75;1.30;;;22.50;98.00;;;;;;5108488;27;45387;-68
2023/07/31 06:53:12;;;;;;;1.20;1.10;;;22.60;98.00;;;;;;5103066;27;45313;-67
2023/07/31 06:55:39;;;;;;;1.67;1.08;;;22.50;98.00;;;;;;5106537;27;46065;-68
2023/07/31 06:58:06;;;;;;;3.22;1.20;;;22.60;98.00;;;;;;5102065;27;45319;-67
2023/07/31 07:00:33;;;;;;;2.47;1.50;;;22.60;98.00;;;;;;5108249;27;45127;-67
2023/07/31 07:03:00;;;;;;;1.67;1.20;;;22.60;98.00;;;;;;5102688;27;45260;-67
2023/07/31 07:05:27;;;;;;;1.65;1.20;;;22.60;98.00;;;;;;5102210;27;46282;-67
2023/07/31 07:07:55;;;;;;;1.70;1.20;;;22.60;98.00;;;;;;5104186;27;45354;-67
2023/07/31 07:10:22;;;;;;;1.58;1.23;;;22.60;98.00;;;;;;5113978;27;45153;-67
2023/07/31 07:12:49;;;;;;;3.90;1.30;;;22.60;98.00;;;;;;5102490;27;45341;-68
2023/07/31 07:15:16;;;;;;;1.83;1.13;;;22.60;98.00;;;;;;5102307;27;45247;-67
2023/07/31 07:17:43;;;;;;;2.10;1.30;;;22.60;98.00;;;;;;5101948;27;45162;-67
2023/07/31 07:20:10;;;;;;;1.58;1.25;;;22.60;98.10;;;;;;5093798;27;45182;-68
2023/07/31 07:22:37;;;;;;;2.35;1.35;;;22.60;98.10;;;;;;5102910;27;45314;-67
2023/07/31 07:25:07;;;;;;;3.05;1.30;;;22.50;98.10;;;;;;5111373;27;46272;-67
2023/07/31 07:27:33;;;;;;;1.95;1.25;;;22.50;98.10;;;;;;5107806;27;45366;-67
2023/07/31 07:30:00;;;;;;;1.40;1.13;;;22.50;98.10;;;;;;5105381;27;45295;-67
2023/07/31 07:32:27;;;;;;;1.80;1.15;;;22.50;98.10;;;;;;5109120;27;45268;-67
2023/07/31 07:34:54;;;;;;;1.70;1.10;;;22.50;98.10;;;;;;5106302;27;47001;-67
2023/07/31 07:37:21;;;;;;;1.50;1.20;;;22.50;98.10;;;;;;5100682;27;45193;-66
2023/07/31 07:39:47;;;;;;;3.42;1.50;;;22.50;98.00;;;;;;5106324;27;45296;-67
2023/07/31 07:42:16;;;;;;;2.10;1.27;;;22.50;97.90;;;;;;5103009;27;45245;-67
2023/07/31 07:44:42;;;;;;;1.40;1.02;;;22.50;97.80;;;;;;5113188;27;46318;-67
2023/07/31 07:47:09;;;;;;;1.92;1.33;;;22.50;97.80;;;;;;5107915;27;45459;-67
2023/07/31 07:49:36;;;;;;;1.77;1.20;;;22.50;97.70;;;;;;5104672;27;45228;-66
2023/07/31 07:52:04;;;;;;;1.65;1.17;;;22.50;97.60;;;;;;5104548;27;45257;-67
2023/07/31 07:54:31;;;;;;;3.22;1.30;;;22.50;97.60;;;;;;5098725;27;47967;-67
2023/07/31 07:56:58;;;;;;;1.75;1.10;;;22.50;97.50;;;;;;5103738;27;45306;-67
2023/07/31 07:59:26;;;;;;;2.00;1.30;;;22.50;97.50;;;;;;5105264;27;45333;-67
2023/07/31 08:01:53;;;;;;;4.18;1.50;;;22.60;97.60;;;;;;5096706;27;45226;-67
2023/07/31 08:04:20;;;;;;;2.60;1.30;;;22.50;97.60;;;;;;5110554;27;46240;-67
2023/07/31 08:06:46;;;;;;;2.08;1.17;;;22.50;97.70;;;;;;5104694;27;45248;-67
2023/07/31 08:09:13;;;;;;;1.17;0.95;;;22.50;97.70;;;;;;5104374;27;45185;-67
2023/07/31 08:11:40;;;;;;;1.88;1.15;;;22.60;97.80;;;;;;5105040;27;45227;-67
2023/07/31 08:14:07;;;;;;;1.65;1.20;;;22.60;97.90;;;;;;5105155;27;46234;-67
2023/07/31 08:16:35;;;;;;;1.38;1.02;;;22.60;97.90;;;;;;5104917;27;45243;-67
2023/07/31 08:19:01;;;;;;;3.42;1.20;;;22.50;97.90;;;;;;5105328;27;45208;-67
2023/07/31 08:21:29;;;;;;;1.52;1.10;;;22.60;98.00;;;;;;5104692;27;45286;-67
2023/07/31 08:23:55;;;;;;;1.30;1.10;;;22.60;98.00;;;;;;5103808;27;46474;-67
2023/07/31 08:26:22;;;;;;;2.22;1.00;;;22.60;98.00;;;;;;5103002;27;45119;-67
2023/07/31 08:28:49;;;;;;;1.88;1.30;;;22.60;98.10;;;;;;5105720;27;45106;-67
2023/07/31 08:31:16;;;;;;;1.85;1.20;;;22.60;98.20;;;;;;5104166;27;45148;-67
2023/07/31 08:33:44;;;;;;;3.67;1.60;;;22.60;98.20;;;;;;5105313;27;46227;-67
2023/07/31 08:36:11;;;;;;;1.75;1.27;;;22.60;98.30;;;;;;5104874;27;45687;-66
2023/07/31 08:38:37;;;;;;;2.65;1.20;;;22.60;98.30;;;;;;5103963;27;45102;-66
2023/07/31 08:41:05;;;;;;;2.22;1.35;;;22.60;98.40;;;;;;5104792;27;45218;-67
2023/07/31 08:43:33;;;;;;;1.88;1.30;;;22.60;98.40;;;;;;5104635;27;47427;-67
2023/07/31 08:46:00;;;;;;;8.40;1.55;;;22.60;98.40;;;;;;5109026;27;45131;-65
2023/07/31 08:48:28;;;;;;;3.38;1.27;;;22.60;99.10;;;;;;5111424;27;45241;-65
2023/07/31 08:50:56;;;;;;;9.88;1.75;;;22.60;98.60;;;;;;5097512;27;45417;-65
2023/07/31 08:53:23;;;;;;;5.55;1.30;;;22.60;98.40;;;;;;5105627;27;47280;-66
2023/07/31 08:55:53;;;;;;;2.83;1.65;;;22.60;98.50;;;;;;5103180;27;45162;-66
2023/07/31 08:58:21;;;;;;;2.63;1.40;;;22.60;98.60;;;;;;5105911;27;45251;-66
2023/07/31 09:00:48;;;;;;;5.63;1.63;;;22.60;98.60;;;;;;5103651;27;45149;-65
2023/07/31 09:03:17;;;;;;;5.65;1.13;;;22.60;98.50;;;;;;5102767;27;45196;-65
2023/07/31 09:05:46;;;;;;;5.70;1.15;;;22.60;98.50;;;;;;5102352;27;45209;-65
2023/07/31 09:08:18;;;;;;;2.75;0.95;;;22.60;98.50;;;;;;5113398;27;45267;-65
2023/07/31 09:10:46;;;;;;;3.35;1.10;;;22.60;98.50;;;;;;5107607;27;45371;-65
2023/07/31 09:13:13;;;;;;;3.38;1.20;;;22.60;98.50;;;;;;5105736;27;47491;-65
2023/07/31 09:15:43;;;;;;;2.28;1.30;;;22.60;98.50;;;;;;5105775;27;45101;-65
2023/07/31 09:18:10;;;;;;;2.00;1.27;;;22.60;98.50;;;;;;5105741;27;45443;-65
2023/07/31 09:20:37;;;;;;;34.35;4.75;;;22.60;98.50;;;;;;5103842;27;45266;-66
2023/07/31 09:23:09;;;;;;;10.32;1.88;;;22.60;99.20;;;;;;5107195;27;47307;-66
2023/07/31 09:25:38;;;;;;;13.45;2.13;;;22.60;98.80;;;;;;5104199;27;45252;-66
2023/07/31 09:28:06;;;;;;;4.93;1.63;;;22.60;98.70;;;;;;5111076;27;45219;-66
2023/07/31 09:30:46;;;;;;;6.70;1.67;;;22.60;98.60;;;;;;5111985;27;45398;-66
2023/07/31 09:33:13;;;;;;;9.82;1.75;;;22.60;98.50;;;;;;5102594;27;46110;-65
2023/07/31 09:35:40;;;;;;;3.05;1.48;;;22.60;98.40;;;;;;5103774;27;45415;-67
2023/07/31 09:38:09;;;;;;;5.65;1.30;;;22.60;98.30;;;;;;5112560;27;45345;-66
2023/07/31 09:40:39;;;;;;;3.65;1.30;;;22.60;98.30;;;;;;5108175;27;45691;-66
2023/07/31 09:43:07;;;;;;;3.80;1.30;;;22.60;98.20;;;;;;5102425;27;46050;-66
2023/07/31 09:45:37;;;;;;;2.17;1.13;;;22.60;98.20;;;;;;5111293;27;45298;-66
2023/07/31 09:48:04;;;;;;;2.20;0.82;;;22.60;98.20;;;;;;5108120;27;45077;-65
2023/07/31 09:50:31;;;;;;;1.98;1.35;;;22.60;98.20;;;;;;5101231;27;45302;-66
2023/07/31 09:52:57;;;;;;;4.78;1.30;;;22.60;98.30;;;;;;5103338;27;45214;-66
2023/07/31 09:55:25;;;;;;;3.03;1.20;;;22.60;98.30;;;;;;5103417;27;45779;-66
2023/07/31 09:57:58;;;;;;;1.38;0.85;;;22.60;98.40;;;;;;5112288;27;45263;-66
2023/07/31 10:00:28;;;;;;;2.92;0.90;;;22.60;98.50;;;;;;5105299;27;45229;-66
2023/07/31 10:02:59;;;;;;;2.70;1.15;;;22.60;98.60;;;;;;5104623;27;47244;-66
2023/07/31 10:05:31;;;;;;;2.67;1.10;;;22.60;98.70;;;;;;5098956;27;45316;-65
2023/07/31 10:07:58;;;;;;;2.80;1.17;;;22.60;98.70;;;;;;5101954;27;45314;-66
2023/07/31 10:10:27;;;;;;;1.25;0.88;;;22.60;98.50;;;;;;5101749;27;45299;-66
2023/07/31 10:12:57;;;;;;;2.05;1.20;;;22.60;98.30;;;;;;5101031;27;47189;-66
2023/07/31 10:15:25;;;;;;;2.42;1.20;;;22.60;98.20;;;;;;5106722;27;45371;-66
2023/07/31 10:17:53;;;;;;;1.77;0.93;;;22.60;98.50;;;;;;5102745;27;45173;-66
2023/07/31 10:20:21;;;;;;;2.95;1.25;;;22.60;99.00;;;;;;5102856;27;45300;-66
2023/07/31 10:22:49;;;;;;;2.22;1.05;;;22.70;98.90;;;;;;5102247;27;47018;-66
2023/07/31 10:25:17;;;;;;;2.20;1.08;;;22.70;99.10;;;;;;5103701;27;45090;-66
2023/07/31 10:27:46;;;;;;;2.67;1.40;;;22.70;99.30;;;;;;5103576;27;45242;-66
2023/07/31 10:30:18;;;;;;;3.25;1.20;;;22.70;99.40;;;;;;5101617;27;45220;-67
2023/07/31 10:32:46;;;;;;;1.30;1.00;;;22.70;99.60;;;;;;5105562;27;46313;-65
2023/07/31 10:35:13;;;;;;;2.45;1.10;;;22.70;99.50;;;;;;5097914;27;45206;-67
2023/07/31 10:37:42;;;;;;;1.83;0.90;;;22.80;99.50;;;;;;5096941;27;45368;-66
2023/07/31 10:40:12;;;;;;;2.10;1.00;;;22.80;99.40;;;;;;5099149;27;45198;-66
2023/07/31 10:42:47;;;;;;;1.85;1.08;;;22.80;99.20;;;;;;5102101;27;45247;-65
2023/07/31 10:45:24;;;;;;;2.05;1.10;;;22.80;99.30;;;;;;5101937;27;45176;-66
2023/07/31 10:47:58;;;;;;;2.05;1.30;;;22.90;99.40;;;;;;5105236;27;45219;-66
2023/07/31 10:50:26;;;;;;;3.50;1.70;;;22.90;99.50;;;;;;5108690;27;45238;-66
2023/07/31 10:52:54;;;;;;;10.93;4.93;;;22.90;99.50;;;;;;5100814;27;46043;-66
2023/07/31 10:55:30;;;;;;;8.50;3.55;;;22.90;99.60;;;;;;5097690;27;45265;-66
2023/07/31 10:57:58;;;;;;;8.48;3.50;;;22.80;99.40;;;;;;5106070;27;45122;-66
2023/07/31 11:00:29;;;;;;;7.25;2.70;;;22.80;99.40;;;;;;5104668;27;45231;-66
2023/07/31 11:03:08;;;;;;;7.80;2.70;;;22.80;99.40;;;;;;5095431;27;48502;-66
2023/07/31 11:05:46;;;;;;;5.55;2.20;;;22.80;99.50;;;;;;5107706;27;45161;-66
2023/07/31 11:08:15;;;;;;;5.45;2.83;;;22.80;99.40;;;;;;5101660;27;45121;-66
2023/07/31 11:10:41;;;;;;;6.95;2.20;;;22.80;99.30;;;;;;5103085;27;45251;-66
2023/07/31 11:13:08;;;;;;;6.90;2.78;;;22.80;99.30;;;;;;5106178;27;45240;-66
2023/07/31 11:15:36;;;;;;;4.70;2.10;;;22.80;99.30;;;;;;5114463;27;45095;-67
2023/07/31 11:18:05;;;;;;;4.32;1.80;;;22.80;99.30;;;;;;5105927;27;45138;-67
2023/07/31 11:20:32;;;;;;;4.75;2.25;;;22.80;99.30;;;;;;5108935;27;45263;-66
2023/07/31 11:23:01;;;;;;;5.53;2.17;;;22.80;99.20;;;;;;5106686;27;47161;-66
2023/07/31 11:25:29;;;;;;;6.65;2.08;;;22.80;99.20;;;;;;5102322;27;45144;-66
2023/07/31 11:27:56;;;;;;;4.53;1.95;;;22.70;99.20;;;;;;5105188;27;45287;-66
2023/07/31 11:30:23;;;;;;;3.55;1.60;;;22.80;99.30;;;;;;5105256;27;45262;-66
2023/07/31 11:32:51;;;;;;;4.82;2.03;;;22.80;99.30;;;;;;5105885;27;45312;-66
2023/07/31 11:35:18;;;;;;;7.00;2.10;;;22.80;99.10;;;;;;5106158;27;45288;-66
2023/07/31 11:37:46;;;;;;;4.45;2.10;;;22.80;98.90;;;;;;5106036;27;45102;-66
2023/07/31 11:40:13;;;;;;;5.30;2.30;;;22.90;98.90;;;;;;5104477;27;45405;-67
2023/07/31 11:42:40;;;;;;;5.72;2.47;;;22.90;98.90;;;;;;5099843;27;47254;-66
2023/07/31 11:45:08;;;;;;;3.95;2.00;;;22.90;99.10;;;;;;5113572;27;45181;-66
2023/07/31 11:47:37;;;;;;;5.65;1.92;;;22.90;99.10;;;;;;5116836;27;45238;-66
2023/07/31 11:50:06;;;;;;;5.72;2.42;;;22.80;99.10;;;;;;5101280;27;45281;-67
2023/07/31 11:52:38;;;;;;;4.80;2.15;;;22.80;99.10;;;;;;5104052;27;46289;-67
2023/07/31 11:55:06;;;;;;;3.70;1.77;;;22.80;99.00;;;;;;5114390;27;45175;-67
2023/07/31 11:57:34;;;;;;;3.45;1.60;;;22.80;99.00;;;;;;5101456;27;45318;-66
2023/07/31 12:00:01;;;;;;;4.35;2.20;;;22.80;99.00;;;;;;5119248;27;45257;-66
2023/07/31 12:02:27;;;;;;;4.57;2.03;;;22.80;99.00;;;;;;5102438;27;45188;-66
2023/07/31 12:04:54;;;;;;;4.05;2.05;;;22.80;99.10;;;;;;5112685;27;45204;-66
2023/07/31 12:07:24;;;;;;;6.38;2.38;;;22.80;99.10;;;;;;5108153;27;45117;-65
2023/07/31 12:09:54;;;;;;;6.57;2.58;;;22.80;99.20;;;;;;5105539;27;45098;-66
2023/07/31 12:12:22;;;;;;;9.85;2.97;;;22.80;99.30;;;;;;5111897;27;46288;-66
2023/07/31 12:14:50;;;;;;;6.20;2.50;;;22.80;99.40;;;;;;5111809;27;45915;-65
2023/07/31 12:17:19;;;;;;;4.57;1.92;;;22.80;99.40;;;;;;5103509;27;45166;-66
2023/07/31 12:19:46;;;;;;;3.10;1.70;;;22.80;99.40;;;;;;5109124;27;45351;-66
2023/07/31 12:22:14;;;;;;;3.22;1.77;;;22.80;99.50;;;;;;5112131;27;48567;-66
2023/07/31 12:24:44;;;;;;;3.35;1.90;;;22.80;99.60;;;;;;5107396;27;45158;-66
2023/07/31 12:27:12;;;;;;;4.95;2.05;;;22.80;99.60;;;;;;5114719;27;45297;-66
2023/07/31 12:29:40;;;;;;;4.40;1.80;;;22.80;99.70;;;;;;5100001;27;45236;-66
2023/07/31 12:32:20;;;;;;;5.10;2.38;;;22.80;99.70;;;;;;5098403;27;46932;-66
2023/07/31 12:34:47;;;;;;;5.47;2.20;;;22.70;99.70;;;;;;5097380;27;45255;-66
2023/07/31 12:37:14;;;;;;;5.80;2.35;;;22.70;99.90;;;;;;5104141;27;45257;-66
2023/07/31 12:39:42;;;;;;;4.43;2.40;;;22.70;99.90;;;;;;5104449;27;45316;-66
2023/07/31 12:42:09;;;;;;;4.78;2.30;;;22.70;99.90;;;;;;5100146;27;48012;-67
2023/07/31 12:44:35;;;;;;;7.00;2.80;;;22.70;99.90;;;;;;5104779;27;45212;-67
2023/07/31 12:47:02;;;;;;;4.70;1.90;;;22.70;99.90;;;;;;5102728;27;45169;-67